createdAt,value
2019-04-21T00:00:15.108Z,101458.09
2019-04-21T00:02:46.018Z,101453.92
2019-04-21T00:05:34.548Z,101446.53
2019-04-21T00:08:10.899Z,101454.83
2019-04-21T00:10:36.418Z,101456.83
2019-04-21T00:12:57.103Z,101458.58
2019-04-21T00:15:16.721Z,101447.77
2019-04-21T00:17:36.970Z,101446.92
2019-04-21T00:20:19.189Z,101452.19
2019-04-21T00:22:47.770Z,101449.50
2019-04-21T00:25:22.737Z,101442.17
2019-04-21T00:27:51.707Z,101438.43
2019-04-21T00:30:26.974Z,101439.11
2019-04-21T00:32:46.501Z,101430.35
2019-04-21T00:35:11.749Z,101424.48
2019-04-21T00:37:53.203Z,101427.42
2019-04-21T00:40:27.783Z,101426.53
2019-04-21T00:42:55.655Z,101424.78
2019-04-21T00:45:22.281Z,101431.47
2019-04-21T00:47:51.220Z,101430.45
2019-04-21T00:50:25.596Z,101422.59
2019-04-21T00:53:00.564Z,101426.55
2019-04-21T00:55:32.505Z,101429.33
2019-04-21T00:58:03.744Z,101429.91
2019-04-21T01:00:30.471Z,101428.99
2019-04-21T01:03:14.498Z,101428.19
2019-04-21T01:05:27.846Z,101420.53
2019-04-21T01:07:56.202Z,101420.72
2019-04-21T01:10:17.474Z,101418.27
2019-04-21T01:12:56.322Z,101414.05
2019-04-21T01:15:35.213Z,101411.22
2019-04-21T01:17:53.177Z,101414.39
2019-04-21T01:20:12.944Z,101419.78
2019-04-21T01:22:29.495Z,101420.34
2019-04-21T01:25:05.587Z,101423.65
2019-04-21T01:27:45.680Z,101412.73
2019-04-21T01:30:19.224Z,101415.50
2019-04-21T01:32:46.978Z,101424.05
2019-04-21T01:35:08.386Z,101415.01
2019-04-21T01:37:44.194Z,101421.32
2019-04-21T01:40:16.856Z,101420.86
2019-04-21T01:42:32.709Z,101417.02
2019-04-21T01:45:08.050Z,101409.41
2019-04-21T01:47:31.192Z,101405.38
2019-04-21T01:49:56.795Z,101405.67
2019-04-21T01:52:44.193Z,101405.20
2019-04-21T01:55:08.088Z,101405.97
2019-04-21T01:57:35.786Z,101397.19
2019-04-21T01:59:58.666Z,101404.61
2019-04-21T02:02:36.002Z,101407.11
2019-04-21T02:05:10.302Z,101407.23
2019-04-21T02:07:32.902Z,101403.52
2019-04-21T02:10:07.110Z,101410.59
2019-04-21T02:12:31.793Z,101407.73
2019-04-21T02:15:17.162Z,101402.59
2019-04-21T02:17:41.724Z,101404.09
2019-04-21T02:19:49.137Z,101400.16
2019-04-21T02:22:28.456Z,101407.34
2019-04-21T02:24:58.421Z,101406.30
2019-04-21T02:27:23.726Z,101410.72
2019-04-21T02:29:55.645Z,101409.50
2019-04-21T02:35:02.350Z,101409.50
2019-04-21T02:37:51.189Z,101410.59
2019-04-21T02:40:08.407Z,101411.68
2019-04-21T02:42:18.646Z,101411.02
2019-04-21T02:47:31.302Z,101407.08
2019-04-21T02:52:27.419Z,101404.35
2019-04-21T02:57:18.502Z,101393.66
2019-04-21T02:59:55.488Z,101385.78
2019-04-21T03:04:53.211Z,101389.09
2019-04-21T03:09:46.038Z,101385.16
2019-04-21T03:12:18.119Z,101384.06
2019-04-21T03:14:56.212Z,101383.41
2019-04-21T03:17:17.854Z,101379.19
2019-04-21T03:19:55.677Z,101379.52
2019-04-21T03:27:25.797Z,101381.64
2019-04-21T03:32:31.816Z,101377.58
2019-04-21T03:39:37.503Z,101367.11
2019-04-21T03:44:37.352Z,101366.98
2019-04-21T03:47:08.817Z,101369.18
2019-04-21T03:49:39.048Z,101380.07
2019-04-21T03:52:03.229Z,101381.67
2019-04-21T03:54:30.858Z,101388.63
2019-04-21T03:57:09.031Z,101390.51
2019-04-21T03:59:19.666Z,101390.66
2019-04-21T04:02:01.847Z,101387.05
2019-04-21T04:11:54.704Z,101382.64
2019-04-21T04:14:34.210Z,101393.04
2019-04-21T04:17:06.458Z,101392.22
2019-04-21T04:19:34.406Z,101384.48
2019-04-21T04:29:19.941Z,101376.56
2019-04-21T04:31:42.788Z,101385.48
2019-04-21T04:34:22.687Z,101361.11
2019-04-21T04:37:02.061Z,101368.68
2019-04-21T04:41:53.054Z,101381.85
2019-04-21T04:44:29.500Z,101383.10
2019-04-21T04:49:23.734Z,101389.98
2019-04-21T04:51:56.718Z,101391.19
2019-04-21T04:54:17.494Z,101391.45
2019-04-21T04:56:40.433Z,101391.84
2019-04-21T05:04:28.327Z,101406.54
2019-04-21T05:06:41.946Z,101414.34
2019-04-21T05:09:09.372Z,101413.58
2019-04-21T05:23:48.537Z,101402.82
2019-04-21T05:26:09.973Z,101389.75
2019-04-21T05:28:37.366Z,101393.70
2019-04-21T05:31:18.245Z,101398.84
2019-04-21T05:33:44.803Z,101391.52
2019-04-21T05:36:14.229Z,101384.54
2019-04-21T05:38:42.342Z,101398.20
2019-04-21T05:41:06.297Z,101394.72
2019-04-21T05:43:54.541Z,101382.59
2019-04-21T05:46:14.260Z,101385.39
2019-04-21T05:48:48.281Z,101386.53
2019-04-21T05:51:11.827Z,101377.25
2019-04-21T05:53:36.089Z,101383.69
2019-04-21T05:56:12.552Z,101388.11
2019-04-21T05:58:40.846Z,101390.12
2019-04-21T06:01:14.633Z,101389.33
2019-04-21T06:04:03.617Z,101385.93
2019-04-21T06:08:58.429Z,101404.84
2019-04-21T06:11:25.554Z,101393.40
2019-04-21T06:16:29.724Z,101393.59
2019-04-21T06:18:58.374Z,101399.23
2019-04-21T06:21:16.304Z,101403.52
2019-04-21T06:23:46.575Z,101392.73
2019-04-21T06:26:44.784Z,101395.56
2019-04-21T06:28:50.250Z,101397.80
2019-04-21T06:31:20.205Z,101390.44
2019-04-21T06:33:45.989Z,101393.86
2019-04-21T06:41:32.707Z,101393.47
2019-04-21T06:44:09.594Z,101396.84
2019-04-21T06:49:07.023Z,101394.18
2019-04-21T06:51:48.311Z,101382.75
2019-04-21T06:54:21.091Z,101379.45
2019-04-21T06:56:56.742Z,101379.49
2019-04-21T06:59:24.632Z,101376.01
2019-04-21T07:02:08.816Z,101365.34
2019-04-21T07:04:50.505Z,101364.04
2019-04-21T07:07:15.812Z,101352.42
2019-04-21T07:09:48.304Z,101363.00
2019-04-21T07:12:13.789Z,101357.16
2019-04-21T07:14:46.949Z,101364.22
2019-04-21T07:17:27.918Z,101355.61
2019-04-21T07:22:40.149Z,101353.74
2019-04-21T07:25:10.736Z,101347.92
2019-04-21T07:27:35.337Z,101352.86
2019-04-21T07:32:40.158Z,101350.91
2019-04-21T07:35:16.684Z,101341.27
2019-04-21T07:37:49.270Z,101346.63
2019-04-21T07:40:17.746Z,101346.55
2019-04-21T07:42:55.673Z,101342.22
2019-04-21T07:45:22.492Z,101332.97
2019-04-21T07:48:10.993Z,101341.23
2019-04-21T07:50:45.463Z,101337.65
2019-04-21T07:53:21.271Z,101336.97
2019-04-21T07:55:34.251Z,101331.21
2019-04-21T07:58:26.515Z,101324.14
2019-04-21T08:01:04.514Z,101323.73
2019-04-21T08:03:34.830Z,101322.59
2019-04-21T08:08:26.032Z,101319.91
2019-04-21T08:10:56.977Z,101325.83
2019-04-21T08:13:34.170Z,101321.55
2019-04-21T08:15:58.048Z,101320.44
2019-04-21T08:18:28.679Z,101317.89
2019-04-21T08:20:54.435Z,101320.76
2019-04-21T08:23:29.714Z,101318.70
2019-04-21T08:25:58.938Z,101321.59
2019-04-21T08:28:23.814Z,101309.27
2019-04-21T08:30:47.956Z,101303.31
2019-04-21T08:33:25.009Z,101300.27
2019-04-21T08:38:13.839Z,101287.78
2019-04-21T08:40:49.493Z,101283.72
2019-04-21T08:43:12.241Z,101288.77
2019-04-21T08:45:42.037Z,101282.69
2019-04-21T08:48:12.197Z,101290.45
2019-04-21T08:50:38.955Z,101286.33
2019-04-21T08:53:07.989Z,101286.95
2019-04-21T08:55:41.978Z,101280.45
2019-04-21T08:58:17.476Z,101272.86
2019-04-21T09:00:43.241Z,101275.30
2019-04-21T09:03:06.698Z,101269.67
2019-04-21T09:05:38.638Z,101270.34
2019-04-21T09:08:05.280Z,101269.13
2019-04-21T09:10:34.796Z,101268.56
2019-04-21T09:13:00.188Z,101268.69
2019-04-21T09:15:31.119Z,101262.97
2019-04-21T09:17:54.771Z,101266.03
2019-04-21T09:20:33.602Z,101256.50
2019-04-21T09:23:00.483Z,101243.74
2019-04-21T09:25:33.367Z,101240.17
2019-04-21T09:27:55.013Z,101239.41
2019-04-21T09:30:08.854Z,101228.36
2019-04-21T09:32:37.065Z,101229.15
2019-04-21T09:35:09.842Z,101227.34
2019-04-21T09:37:46.851Z,101214.80
2019-04-21T09:40:06.764Z,101212.92
2019-04-21T09:42:41.187Z,101211.05
2019-04-21T09:45:08.004Z,101212.16
2019-04-21T09:47:43.428Z,101212.14
2019-04-21T09:50:06.623Z,101213.82
2019-04-21T09:52:41.848Z,101216.31
2019-04-21T09:55:09.990Z,101218.73
2019-04-21T09:57:41.638Z,101208.88
2019-04-21T10:00:11.962Z,101202.45
2019-04-21T10:02:37.539Z,101208.98
2019-04-21T10:04:59.480Z,101201.16
2019-04-21T10:07:34.326Z,101188.80
2019-04-21T10:09:55.381Z,101183.09
2019-04-21T10:12:23.432Z,101176.89
2019-04-21T10:14:51.768Z,101181.45
2019-04-21T10:17:21.741Z,101170.09
2019-04-21T10:19:48.734Z,101175.69
2019-04-21T10:22:16.909Z,101186.08
2019-04-21T10:24:44.609Z,101184.19
2019-04-21T10:27:13.299Z,101177.62
2019-04-21T10:29:43.186Z,101180.88
2019-04-21T10:32:09.253Z,101173.20
2019-04-21T10:34:37.131Z,101170.98
2019-04-21T10:37:04.933Z,101169.13
2019-04-21T10:39:32.067Z,101165.51
2019-04-21T10:41:59.586Z,101161.83
2019-04-21T10:44:27.331Z,101168.74
2019-04-21T10:46:55.994Z,101174.27
2019-04-21T10:49:22.791Z,101165.13
2019-04-21T10:51:50.745Z,101159.15
2019-04-21T10:54:18.023Z,101152.77
2019-04-21T10:56:46.152Z,101148.59
2019-04-21T10:59:14.283Z,101146.50
2019-04-21T11:01:41.552Z,101142.20
2019-04-21T11:04:19.562Z,101144.73
2019-04-21T11:06:39.061Z,101148.95
2019-04-21T11:09:08.807Z,101148.97
2019-04-21T11:11:37.697Z,101146.48
2019-04-21T11:14:06.465Z,101149.03
2019-04-21T11:16:35.181Z,101144.58
2019-04-21T11:19:02.378Z,101140.58
2019-04-21T11:21:29.327Z,101132.78
2019-04-21T11:23:56.521Z,101130.23
2019-04-21T11:26:24.332Z,101122.52
2019-04-21T11:28:52.665Z,101129.15
2019-04-21T11:31:20.918Z,101117.01
2019-04-21T11:33:49.136Z,101121.58
2019-04-21T11:36:17.402Z,101117.09
2019-04-21T11:39:05.614Z,101110.38
2019-04-21T11:41:16.229Z,101099.70
2019-04-21T11:43:43.343Z,101096.89
2019-04-21T11:46:10.806Z,101091.17
2019-04-21T11:48:38.020Z,101090.30
2019-04-21T11:51:04.857Z,101078.20
2019-04-21T11:53:32.866Z,101076.03
2019-04-21T11:56:00.768Z,101081.45
2019-04-21T11:58:28.251Z,101080.41
2019-04-21T12:00:57.953Z,101075.18
2019-04-21T12:03:24.936Z,101068.16
2019-04-21T12:05:51.707Z,101065.50
2019-04-21T12:08:27.402Z,101058.46
2019-04-21T12:10:47.394Z,101057.32
2019-04-21T12:13:14.175Z,101059.53
2019-04-21T12:15:40.998Z,101055.88
2019-04-21T12:18:08.049Z,101057.77
2019-04-21T12:20:35.629Z,101064.19
2019-04-21T12:23:02.924Z,101060.23
2019-04-21T12:25:33.293Z,101051.20
2019-04-21T12:28:01.726Z,101044.73
2019-04-21T12:30:29.440Z,101040.58
2019-04-21T12:32:58.177Z,101035.00
2019-04-21T12:35:26.119Z,101037.41
2019-04-21T12:37:55.031Z,101035.15
2019-04-21T12:40:22.107Z,101022.33
2019-04-21T12:42:48.934Z,101018.70
2019-04-21T12:45:17.311Z,101015.16
2019-04-21T12:47:48.309Z,101014.58
2019-04-21T12:50:16.937Z,101016.73
2019-04-21T12:52:45.373Z,101009.71
2019-04-21T12:55:13.526Z,101009.93
2019-04-21T12:57:41.538Z,101004.66
2019-04-21T13:00:13.102Z,101006.66
2019-04-21T13:02:40.055Z,100996.91
2019-04-21T13:05:09.491Z,100992.17
2019-04-21T13:07:37.390Z,100993.23
2019-04-21T13:10:08.531Z,100983.30
2019-04-21T13:12:35.761Z,100984.47
2019-04-21T13:15:06.514Z,100972.40
2019-04-21T13:17:33.518Z,100971.62
2019-04-21T13:20:01.188Z,100964.86
2019-04-21T13:22:28.176Z,100962.95
2019-04-21T13:24:55.826Z,100955.79
2019-04-21T13:27:22.822Z,100951.42
2019-04-21T13:29:50.389Z,100952.28
2019-04-21T13:32:18.465Z,100952.08
2019-04-21T13:34:46.079Z,100943.48
2019-04-21T13:37:15.281Z,100944.59
2019-04-21T13:40:09.625Z,100941.19
2019-04-21T13:42:21.391Z,100937.80
2019-04-21T13:44:41.621Z,100941.56
2019-04-21T13:47:08.310Z,100939.73
2019-04-21T13:49:35.186Z,100931.59
2019-04-21T13:52:04.818Z,100923.70
2019-04-21T13:54:31.756Z,100916.73
2019-04-21T13:56:58.717Z,100899.83
2019-04-21T13:59:26.441Z,100889.80
2019-04-21T14:01:53.996Z,100886.87
2019-04-21T14:04:21.197Z,100889.05
2019-04-21T14:06:48.156Z,100889.63
2019-04-21T14:09:15.687Z,100887.45
2019-04-21T14:11:43.463Z,100884.85
2019-04-21T14:14:10.732Z,100867.99
2019-04-21T14:16:38.239Z,100868.73
2019-04-21T14:19:05.668Z,100865.53
2019-04-21T14:21:33.687Z,100867.75
2019-04-21T14:24:02.169Z,100854.66
2019-04-21T14:26:30.110Z,100857.48
2019-04-21T14:28:56.910Z,100839.20
2019-04-21T14:31:24.172Z,100832.98
2019-04-21T14:33:52.075Z,100830.84
2019-04-21T14:36:20.944Z,100833.39
2019-04-21T14:38:47.990Z,100829.32
2019-04-21T14:41:15.041Z,100834.94
2019-04-21T14:43:41.941Z,100838.67
2019-04-21T14:46:11.078Z,100848.45
2019-04-21T14:48:41.189Z,100847.92
2019-04-21T14:51:11.221Z,100858.30
2019-04-21T14:53:41.473Z,100882.47
2019-04-21T14:56:09.138Z,100908.75
2019-04-21T14:58:37.091Z,100916.67
2019-04-21T15:01:06.078Z,100924.86
2019-04-21T15:03:34.186Z,100901.08
2019-04-21T15:06:01.510Z,100894.05
2019-04-21T15:08:28.986Z,100905.78
2019-04-21T15:10:56.917Z,100896.03
2019-04-21T15:13:23.878Z,100889.92
2019-04-21T15:15:52.099Z,100894.15
2019-04-21T15:18:19.265Z,100888.88
2019-04-21T15:20:48.593Z,100890.51
2019-04-21T15:23:15.038Z,100890.36
2019-04-21T15:25:41.950Z,100884.72
2019-04-21T15:28:09.527Z,100879.72
2019-04-21T15:30:36.617Z,100860.19
2019-04-21T15:33:04.499Z,100860.57
2019-04-21T15:35:33.008Z,100851.31
2019-04-21T15:38:00.146Z,100849.65
2019-04-21T15:40:39.815Z,100836.41
2019-04-21T15:42:56.718Z,100842.70
2019-04-21T15:45:24.346Z,100836.38
2019-04-21T15:47:51.917Z,100830.75
2019-04-21T15:50:20.190Z,100825.03
2019-04-21T15:52:49.762Z,100821.66
2019-04-21T15:55:19.056Z,100822.30
2019-04-21T15:57:47.005Z,100842.68
2019-04-21T16:00:18.354Z,100841.17
2019-04-21T16:02:46.971Z,100840.44
2019-04-21T16:05:15.041Z,100812.95
2019-04-21T16:07:42.357Z,100802.67
2019-04-21T16:10:13.064Z,100797.77
2019-04-21T16:12:43.691Z,100799.86
2019-04-21T16:15:12.511Z,100805.00
2019-04-21T16:17:41.282Z,100806.39
2019-04-21T16:20:10.160Z,100787.73
2019-04-21T16:22:37.137Z,100790.94
2019-04-21T16:25:06.675Z,100796.63
2019-04-21T16:27:33.357Z,100809.87
2019-04-21T16:30:01.820Z,100810.42
2019-04-21T16:32:30.299Z,100812.53
2019-04-21T16:35:06.382Z,100828.92
2019-04-21T16:37:29.784Z,100823.82
2019-04-21T16:39:56.940Z,100817.73
2019-04-21T16:42:24.506Z,100835.52
2019-04-21T16:44:52.774Z,100838.03
2019-04-21T16:47:19.811Z,100847.89
2019-04-21T16:49:47.563Z,100835.68
2019-04-21T16:52:16.607Z,100827.02
2019-04-21T16:54:46.125Z,100842.58
2019-04-21T16:57:15.892Z,100834.11
2019-04-21T16:59:44.519Z,100848.11
2019-04-21T17:02:12.360Z,100846.16
2019-04-21T17:04:40.303Z,100840.27
2019-04-21T17:07:07.416Z,100840.01
2019-04-21T17:09:34.727Z,100844.79
2019-04-21T17:12:05.615Z,100866.09
2019-04-21T17:14:45.272Z,100866.71
2019-04-21T17:17:18.068Z,100867.25
2019-04-21T17:19:31.424Z,100868.83
2019-04-21T17:21:57.551Z,100867.54
2019-04-21T17:24:24.670Z,100876.70
2019-04-21T17:26:51.590Z,100873.77
2019-04-21T17:29:18.943Z,100877.12
2019-04-21T17:31:45.856Z,100873.09
2019-04-21T17:34:18.028Z,100873.87
2019-04-21T17:36:41.494Z,100870.72
2019-04-21T17:39:08.940Z,100873.93
2019-04-21T17:41:42.474Z,100888.72
2019-04-21T17:44:06.685Z,100890.92
2019-04-21T17:46:47.827Z,100891.05
2019-04-21T17:49:16.983Z,100893.80
2019-04-21T17:51:57.272Z,100905.17
2019-04-21T17:54:36.009Z,100927.57
2019-04-21T17:57:23.245Z,100938.59
2019-04-21T18:02:36.653Z,100925.91
2019-04-21T18:05:03.729Z,100918.88
2019-04-21T18:07:47.722Z,100929.08
2019-04-21T18:10:07.771Z,100928.23
2019-04-21T18:12:36.238Z,100938.91
2019-04-21T18:15:02.041Z,100934.80
2019-04-21T18:17:28.956Z,100933.28
2019-04-21T18:20:01.800Z,100934.66
2019-04-21T18:22:45.470Z,100950.70
2019-04-21T18:25:29.615Z,100964.80
2019-04-21T18:27:54.570Z,100976.20
2019-04-21T18:30:34.027Z,100994.23
2019-04-21T18:33:14.227Z,100985.66
2019-04-21T18:35:51.697Z,100985.69
2019-04-21T18:38:35.569Z,100997.82
2019-04-21T18:41:03.684Z,101003.83
2019-04-21T18:44:11.854Z,100999.63
2019-04-21T18:46:38.644Z,100998.27
2019-04-21T18:49:01.451Z,100998.86
2019-04-21T18:51:49.172Z,101001.60
2019-04-21T18:54:36.729Z,100978.94
2019-04-21T18:57:10.627Z,100983.17
2019-04-21T18:59:45.715Z,100966.09
2019-04-21T19:02:22.487Z,100960.60
2019-04-21T19:05:12.657Z,100979.94
2019-04-21T19:07:58.323Z,100995.09
2019-04-21T19:10:40.645Z,100985.22
2019-04-21T19:16:20.697Z,100978.00
2019-04-21T19:18:40.170Z,100988.05
2019-04-21T19:21:11.179Z,100999.30
2019-04-21T19:23:57.915Z,100996.40
2019-04-21T19:26:33.348Z,101002.36
2019-04-21T19:29:16.045Z,100989.69
2019-04-21T19:31:44.349Z,100997.10
2019-04-21T19:34:14.336Z,101004.09
2019-04-21T19:36:51.878Z,101001.66
2019-04-21T19:39:39.064Z,100992.27
2019-04-21T19:42:13.028Z,100975.72
2019-04-21T19:44:56.456Z,100961.81
2019-04-21T19:47:41.462Z,100963.76
2019-04-21T19:50:21.080Z,100964.08
2019-04-21T19:52:47.360Z,100966.88
2019-04-21T19:55:14.300Z,100980.91
2019-04-21T19:57:52.668Z,100977.20
2019-04-21T20:00:32.494Z,100966.94
2019-04-21T20:03:10.481Z,100977.55
2019-04-21T20:05:59.308Z,100977.25
2019-04-21T20:08:37.487Z,100989.91
2019-04-21T20:11:23.913Z,100988.12
2019-04-21T20:14:18.902Z,100985.22
2019-04-21T20:16:41.740Z,100983.20
2019-04-21T20:19:03.965Z,100982.83
2019-04-21T20:21:35.749Z,100982.37
2019-04-21T20:24:33.731Z,100984.38
2019-04-21T20:27:17.771Z,100976.73
2019-04-21T20:30:07.291Z,100991.34
2019-04-21T20:32:54.167Z,100990.31
2019-04-21T20:35:35.196Z,100982.44
2019-04-21T20:38:00.386Z,100978.73
2019-04-21T20:40:30.875Z,100980.07
2019-04-21T20:43:26.964Z,100980.30
2019-04-21T20:45:59.290Z,100979.02
2019-04-21T20:48:29.644Z,100985.12
2019-04-21T20:51:13.085Z,100980.00
2019-04-21T20:53:49.075Z,100985.75
2019-04-21T20:56:17.074Z,100989.91
2019-04-21T20:58:58.145Z,100990.84
2019-04-21T21:03:51.804Z,100989.02
2019-04-21T21:06:26.263Z,100988.25
2019-04-21T21:08:57.376Z,100988.73
2019-04-21T21:11:26.137Z,100983.21
2019-04-21T21:13:57.292Z,100981.30
2019-04-21T21:16:36.853Z,100985.16
2019-04-21T21:19:08.179Z,100983.15
2019-04-21T21:21:21.028Z,100985.46
2019-04-21T21:23:50.986Z,100990.74
2019-04-21T21:26:23.433Z,100996.35
2019-04-21T21:28:43.265Z,100994.27
2019-04-21T21:31:14.818Z,100992.45
2019-04-21T21:33:52.492Z,100998.40
2019-04-21T21:36:13.776Z,101002.00
2019-04-21T21:38:42.931Z,100999.14
2019-04-21T21:41:03.698Z,101001.34
2019-04-21T21:43:24.782Z,100988.24
2019-04-21T21:45:55.643Z,100990.41
2019-04-21T21:48:31.712Z,100991.09
2019-04-21T21:50:57.801Z,101001.25
2019-04-21T21:53:21.560Z,101001.51
2019-04-21T21:55:46.854Z,101001.73
2019-04-21T21:58:19.357Z,100999.05
2019-04-21T22:00:49.759Z,100993.16
2019-04-21T22:03:24.483Z,100992.59
2019-04-21T22:05:53.526Z,100999.08
2019-04-21T22:08:14.392Z,101001.20
2019-04-21T22:10:41.330Z,100997.41
2019-04-21T22:13:12.793Z,101001.56
2019-04-21T22:15:37.685Z,100988.14
2019-04-21T22:18:24.616Z,100997.09
2019-04-21T22:20:56.478Z,100993.55
2019-04-21T22:23:11.304Z,100990.32
2019-04-21T22:25:34.790Z,100988.91
2019-04-21T22:27:59.967Z,100981.72
2019-04-21T22:30:36.647Z,100987.23
2019-04-21T22:33:03.736Z,100979.11
2019-04-21T22:35:34.781Z,100984.27
2019-04-21T22:38:11.798Z,100978.72
2019-04-21T22:40:45.243Z,100978.81
2019-04-21T22:43:09.946Z,100971.77
2019-04-21T22:45:25.139Z,100974.81
2019-04-21T22:47:55.613Z,100980.84
2019-04-21T22:50:26.672Z,100974.75
2019-04-21T22:53:01.518Z,100973.89
2019-04-21T22:55:27.275Z,100973.50
2019-04-21T22:57:55.247Z,100978.86
2019-04-21T23:00:23.707Z,100977.66
2019-04-21T23:03:01.361Z,100984.63
2019-04-21T23:05:28.276Z,100984.28
2019-04-21T23:07:56.674Z,100980.59
2019-04-21T23:10:23.264Z,100977.91
2019-04-21T23:12:50.270Z,100968.34
2019-04-21T23:15:22.749Z,100953.69
2019-04-21T23:18:04.761Z,100961.20
2019-04-21T23:20:42.007Z,100958.20
2019-04-21T23:23:11.769Z,100958.81
2019-04-21T23:25:30.510Z,100962.61
2019-04-21T23:28:03.060Z,100965.97
2019-04-21T23:30:39.003Z,100966.22
2019-04-21T23:32:51.387Z,100967.59
2019-04-21T23:35:19.675Z,100961.32
2019-04-21T23:37:50.082Z,100966.34
2019-04-21T23:40:17.691Z,100963.81
2019-04-21T23:42:43.310Z,100963.05
2019-04-21T23:45:10.558Z,100959.17
2019-04-21T23:47:48.043Z,100963.94
2019-04-21T23:50:21.110Z,100966.98
2019-04-21T23:52:37.490Z,100965.41
2019-04-21T23:55:07.331Z,100957.52
2019-04-21T23:57:41.136Z,100957.44
